This is the latest recevied weather packets stored in our database for station/object KC4JES. If no packets are shown the sender has not sent any weather packets the latest 10 day(s).
| Time | Temp. | Humidity | Pressure | Rain* | Wind** | Luminosity | Snow |
|---|---|---|---|---|---|---|---|
| 1777418158 | 23.33° C | 84% | 1018.5 hPa | 0 mm | - | 19 W/m² | - |
| 1777417855 | 23.33° C | 84% | 1018.4 hPa | 0 mm | - | 21 W/m² | - |
| 1777417550 | 23.33° C | 84% | 1018.7 hPa | 0 mm | - | 24 W/m² | - |
| 1777417247 | 23.33° C | 84% | 1018.8 hPa | 0 mm | - | 28 W/m² | - |
| 1777416943 | 23.33° C | 83% | 1019 hPa | 0 mm | - | 33 W/m² | - |
| 1777416638 | 23.33° C | 83% | 1019 hPa | 0 mm | - | 38 W/m² | - |
| 1777416334 | 23.89° C | 83% | 1019.2 hPa | 0 mm | - | 43 W/m² | - |
| 1777416033 | 23.33° C | 82% | 1019.2 hPa | 0 mm | - | 48 W/m² | - |
| 1777415729 | 23.89° C | 82% | 1019.2 hPa | 0 mm | - | 45 W/m² | - |
| 1777415426 | 23.89° C | 82% | 1019.2 hPa | 0 mm | - | 39 W/m² | - |
| 1777415125 | 23.89° C | 81% | 1019.3 hPa | 0 mm | - | 50 W/m² | - |
| 1777414821 | 23.89° C | 81% | 1019.6 hPa | 0 mm | - | 67 W/m² | - |
| 1777414516 | 23.89° C | 82% | 1019.6 hPa | 0 mm | - | 88 W/m² | - |
| 1777414215 | 23.89° C | 81% | 1019.5 hPa | 0 mm | - | 63 W/m² | - |
| 1777413911 | 23.89° C | 81% | 1019.7 hPa | 0 mm | - | 72 W/m² | - |
| 1777413606 | 23.89° C | 80% | 1019.5 hPa | 0 mm | - | 51 W/m² | - |
| 1777413303 | 23.89° C | 79% | 1019.7 hPa | 0 mm | - | 67 W/m² | - |
| 1777412999 | 24.44° C | 78% | 1019.8 hPa | 0 mm | - | 101 W/m² | - |
| 1777412698 | 25° C | 76% | 1019.5 hPa | 0 mm | - | 71 W/m² | - |
| 1777412396 | 25° C | 77% | 1019.6 hPa | 0 mm | - | 70 W/m² | - |
| 1777412095 | 25.56° C | 74% | 1019.6 hPa | 0 mm | - | 92 W/m² | - |
| 1777411791 | 26.67° C | 69% | 1019.6 hPa | 0 mm | - | 327 W/m² | - |
| 1777411490 | 27.22° C | 68% | 1019.8 hPa | 0 mm | - | 442 W/m² | - |
| 1777411189 | 26.67° C | 69% | 1019.8 hPa | 0 mm | - | 454 W/m² | - |
| 1777410885 | 26.11° C | 71% | 1019.9 hPa | 0 mm | - | 443 W/m² | - |
* Rain latest hour (hover to see other rain measurements)
** Current wind speed in m/s (hover to see current wind gust speed)